createdAt,value
2022-09-12T00:03:06.007Z,9.80
2022-09-12T00:08:09.647Z,9.80
2022-09-12T00:13:14.610Z,9.70
2022-09-12T00:18:18.381Z,9.70
2022-09-12T00:23:25.488Z,9.60
2022-09-12T00:28:29.074Z,9.60
2022-09-12T00:33:32.981Z,9.60
2022-09-12T00:38:42.651Z,9.50
2022-09-12T00:43:53.938Z,9.40
2022-09-12T00:49:09.237Z,9.40
2022-09-12T00:54:17.712Z,9.50
2022-09-12T00:59:35.957Z,9.60
2022-09-12T01:04:41.122Z,9.50
2022-09-12T01:09:46.389Z,9.60
2022-09-12T01:14:49.952Z,9.60
2022-09-12T01:19:56.718Z,9.50
2022-09-12T01:25:27.943Z,9.60
2022-09-12T01:30:46.279Z,9.70
2022-09-12T01:36:11.830Z,9.70
2022-09-12T01:41:54.820Z,9.60
2022-09-12T01:46:58.427Z,9.60
2022-09-12T01:52:12.233Z,9.50
2022-09-12T01:57:28.190Z,9.40
2022-09-12T02:02:37.521Z,9.50
2022-09-12T02:07:50.427Z,9.40
2022-09-12T02:12:57.283Z,9.40
2022-09-12T02:18:04.016Z,9.40
2022-09-12T02:23:13.207Z,9.40
2022-09-12T02:28:34.664Z,9.50
2022-09-12T02:33:52.787Z,9.60
2022-09-12T02:38:58.075Z,9.70
2022-09-12T02:44:02.188Z,9.70
2022-09-12T02:49:05.840Z,9.80
2022-09-12T02:54:10.636Z,9.70
2022-09-12T02:59:18.269Z,9.70
2022-09-12T03:05:08.139Z,9.70
2022-09-12T03:10:31.784Z,9.60
2022-09-12T03:16:01.913Z,9.60
2022-09-12T03:21:12.408Z,9.50
2022-09-12T03:26:30.044Z,9.40
2022-09-12T03:31:33.936Z,9.40
2022-09-12T03:36:37.536Z,9.20
2022-09-12T03:41:41.699Z,9.10
2022-09-12T03:46:46.301Z,9.00
2022-09-12T03:51:50.767Z,8.80
2022-09-12T03:56:54.513Z,8.70
2022-09-12T04:01:58.525Z,8.60
2022-09-12T04:07:02.308Z,8.50
2022-09-12T04:12:06.107Z,8.40
2022-09-12T04:17:10.748Z,8.40
2022-09-12T04:22:14.668Z,8.40
2022-09-12T04:27:18.697Z,8.30
2022-09-12T04:32:23.218Z,8.40
2022-09-12T04:37:27.799Z,8.40
2022-09-12T04:42:31.883Z,8.40
2022-09-12T04:47:35.617Z,8.40
2022-09-12T04:52:39.612Z,8.40
2022-09-12T04:57:43.541Z,8.50
2022-09-12T05:02:47.568Z,8.60
2022-09-12T05:07:51.760Z,8.70
2022-09-12T05:12:55.269Z,8.80
2022-09-12T05:18:01.003Z,8.90
2022-09-12T05:23:19.037Z,9.10
2022-09-12T05:28:23.540Z,9.30
2022-09-12T05:33:27.747Z,9.50
2022-09-12T05:38:32.185Z,9.80
2022-09-12T05:43:37.231Z,10.00
2022-09-12T05:48:43.212Z,10.20
2022-09-12T05:53:49.803Z,10.40
2022-09-12T05:59:01.799Z,10.60
2022-09-12T06:04:07.568Z,10.80
2022-09-12T06:09:12.684Z,11.00
2022-09-12T06:14:17.791Z,11.10
2022-09-12T06:19:24.606Z,11.30
2022-09-12T06:24:29.314Z,11.50
2022-09-12T06:29:34.500Z,11.70
2022-09-12T06:34:39.055Z,11.90
2022-09-12T06:39:43.042Z,12.10
2022-09-12T06:44:46.447Z,12.40
2022-09-12T06:49:51.899Z,12.50
2022-09-12T06:54:55.572Z,12.70
2022-09-12T07:00:00.410Z,12.90
2022-09-12T07:05:05.203Z,13.20
2022-09-12T07:10:10.554Z,13.40
2022-09-12T07:15:14.883Z,13.60
2022-09-12T07:20:21.965Z,13.80
2022-09-12T07:25:26.379Z,14.10
2022-09-12T07:30:30.739Z,14.30
2022-09-12T07:35:35.920Z,14.50
2022-09-12T07:40:41.354Z,14.60
2022-09-12T07:45:45.786Z,14.80
2022-09-12T07:51:03.152Z,15.10
2022-09-12T07:56:17.090Z,15.30
2022-09-12T08:01:27.330Z,15.50
2022-09-12T08:06:36.797Z,15.70
2022-09-12T08:11:44.231Z,15.90
2022-09-12T08:16:49.555Z,16.10
2022-09-12T08:21:53.787Z,16.30
2022-09-12T08:27:01.360Z,16.50
2022-09-12T08:32:06.227Z,16.70
2022-09-12T08:37:13.169Z,17.10
2022-09-12T08:43:12.575Z,17.30
2022-09-12T08:48:24.785Z,17.40
2022-09-12T08:53:37.491Z,17.40
2022-09-12T08:58:48.906Z,17.70
2022-09-12T09:03:57.531Z,17.60
2022-09-12T09:09:34.846Z,17.60
2022-09-12T09:15:11.562Z,17.90
2022-09-12T09:20:43.288Z,17.80
2022-09-12T09:26:15.457Z,18.10
2022-09-12T09:31:27.075Z,18.20
2022-09-12T09:37:04.156Z,17.90
2022-09-12T09:42:41.762Z,17.60
2022-09-12T09:48:15.189Z,18.00
2022-09-12T09:53:52.158Z,18.50
2022-09-12T09:58:56.092Z,18.40
2022-09-12T10:04:00.333Z,18.70
2022-09-12T10:09:16.188Z,18.70
2022-09-12T10:14:35.973Z,19.00
2022-09-12T10:19:40.891Z,19.20
2022-09-12T10:24:50.678Z,19.20
2022-09-12T10:30:21.610Z,19.10
2022-09-12T10:35:31.097Z,19.00
2022-09-12T10:40:43.435Z,19.30
2022-09-12T10:45:47.396Z,19.40
2022-09-12T10:50:51.126Z,19.60
2022-09-12T10:56:14.497Z,19.90
2022-09-12T11:01:30.168Z,20.10
2022-09-12T11:06:51.636Z,19.90
2022-09-12T11:12:19.359Z,20.00
2022-09-12T11:17:52.838Z,20.30
2022-09-12T11:23:18.097Z,19.80
2022-09-12T11:28:37.069Z,19.90
2022-09-12T11:33:56.785Z,20.30
2022-09-12T11:39:55.743Z,20.20
2022-09-12T11:45:13.887Z,19.30
2022-09-12T11:50:30.527Z,19.20
2022-09-12T11:56:01.123Z,19.60
2022-09-12T12:01:15.678Z,19.90
2022-09-12T12:06:26.468Z,20.20
2022-09-12T12:11:38.458Z,20.30
2022-09-12T12:16:43.125Z,20.50
2022-09-12T12:21:50.004Z,20.80
2022-09-12T12:27:04.998Z,20.90
2022-09-12T12:32:21.620Z,20.50
2022-09-12T12:37:30.036Z,20.20
2022-09-12T12:42:58.527Z,20.20
2022-09-12T12:48:12.991Z,19.90
2022-09-12T12:53:28.979Z,19.70
2022-09-12T12:58:41.297Z,20.10
2022-09-12T13:04:00.874Z,20.50
2022-09-12T13:09:10.279Z,21.20
2022-09-12T13:14:36.385Z,21.40
2022-09-12T13:19:40.936Z,21.70
2022-09-12T13:24:52.123Z,21.70
2022-09-12T13:30:16.195Z,21.40
2022-09-12T13:35:31.965Z,21.40
2022-09-12T13:40:59.695Z,21.60
2022-09-12T13:46:03.513Z,21.10
2022-09-12T13:51:08.533Z,20.80
2022-09-12T13:56:20.539Z,21.20
2022-09-12T14:01:27.133Z,21.60
2022-09-12T14:06:38.518Z,21.70
2022-09-12T14:11:42.097Z,22.00
2022-09-12T14:16:45.330Z,22.20
2022-09-12T14:21:50.588Z,22.10
2022-09-12T14:26:57.437Z,21.90
2022-09-12T14:32:06.475Z,21.80
2022-09-12T14:37:10.097Z,21.40
2022-09-12T14:42:27.530Z,21.10
2022-09-12T14:47:39.192Z,20.90
2022-09-12T14:52:45.297Z,20.80
2022-09-12T14:57:51.237Z,20.80
2022-09-12T15:02:55.635Z,20.80
2022-09-12T15:08:01.795Z,20.70
2022-09-12T15:13:17.075Z,21.00
2022-09-12T15:18:21.469Z,21.00
2022-09-12T15:23:50.897Z,20.70
2022-09-12T15:28:54.755Z,20.30
2022-09-12T15:34:01.673Z,20.30
2022-09-12T15:39:06.034Z,20.20
2022-09-12T15:44:13.332Z,20.20
2022-09-12T15:49:16.928Z,20.30
2022-09-12T15:54:23.945Z,20.50
2022-09-12T15:59:27.283Z,20.70
2022-09-12T16:04:31.631Z,20.50
2022-09-12T16:09:35.247Z,20.30
2022-09-12T16:14:38.565Z,20.30
2022-09-12T16:19:44.137Z,20.20
2022-09-12T16:24:47.566Z,20.10
2022-09-12T16:29:51.928Z,20.00
2022-09-12T16:34:56.488Z,19.70
2022-09-12T16:40:01.234Z,19.50
2022-09-12T16:45:05.246Z,19.30
2022-09-12T16:50:09.078Z,19.00
2022-09-12T16:55:12.718Z,18.80
2022-09-12T17:00:16.646Z,18.50
2022-09-12T17:05:21.387Z,18.20
2022-09-12T17:10:24.945Z,17.80
2022-09-12T17:15:29.298Z,17.40
2022-09-12T17:20:35.888Z,17.10
2022-09-12T17:25:39.550Z,16.70
2022-09-12T17:30:43.777Z,16.40
2022-09-12T17:35:47.022Z,16.20
2022-09-12T17:40:59.405Z,15.90
2022-09-12T17:46:04.055Z,15.70
2022-09-12T17:51:13.044Z,15.30
2022-09-12T17:56:18.707Z,15.00
2022-09-12T18:01:42.012Z,14.70
2022-09-12T18:06:49.327Z,14.50
2022-09-12T18:11:55.607Z,14.30
2022-09-12T18:17:01.131Z,14.10
2022-09-12T18:22:06.948Z,13.80
2022-09-12T18:27:11.325Z,13.50
2022-09-12T18:32:15.190Z,13.40
2022-09-12T18:37:18.988Z,13.30
2022-09-12T18:42:22.345Z,13.20
2022-09-12T18:47:26.916Z,13.10
2022-09-12T18:52:32.562Z,13.00
2022-09-12T18:57:36.777Z,13.00
2022-09-12T19:02:40.947Z,12.90
2022-09-12T19:07:44.767Z,12.80
2022-09-12T19:12:48.907Z,12.70
2022-09-12T19:17:53.267Z,12.60
2022-09-12T19:22:57.340Z,12.50
2022-09-12T19:28:01.187Z,12.40
2022-09-12T19:33:04.756Z,12.40
2022-09-12T19:38:08.627Z,12.30
2022-09-12T19:43:12.787Z,12.20
2022-09-12T19:48:15.978Z,12.10
2022-09-12T19:53:19.885Z,12.00
2022-09-12T19:58:23.755Z,12.00
2022-09-12T20:03:27.364Z,11.90
2022-09-12T20:08:31.159Z,11.90
2022-09-12T20:13:34.467Z,11.80
2022-09-12T20:18:38.507Z,11.70
2022-09-12T20:23:41.935Z,11.60
2022-09-12T20:28:45.500Z,11.50
2022-09-12T20:33:51.748Z,11.40
2022-09-12T20:38:59.221Z,11.30
2022-09-12T20:44:03.117Z,11.10
2022-09-12T20:49:09.986Z,11.00
2022-09-12T20:54:14.034Z,10.80
2022-09-12T20:59:17.767Z,10.70
2022-09-12T21:04:21.507Z,10.60
2022-09-12T21:09:24.633Z,10.40
2022-09-12T21:14:30.963Z,10.40
2022-09-12T21:19:35.388Z,10.30
2022-09-12T21:24:38.895Z,10.30
2022-09-12T21:29:42.247Z,10.20
2022-09-12T21:34:48.136Z,10.20
2022-09-12T21:39:51.625Z,10.20
2022-09-12T21:44:56.071Z,10.10
2022-09-12T21:49:59.547Z,10.10
2022-09-12T21:55:07.435Z,9.90
2022-09-12T22:00:17.227Z,9.70
2022-09-12T22:05:22.397Z,9.60
2022-09-12T22:10:32.657Z,9.50
2022-09-12T22:15:52.498Z,9.50
2022-09-12T22:21:18.550Z,9.40
2022-09-12T22:26:22.399Z,9.30
2022-09-12T22:31:27.684Z,9.20
2022-09-12T22:36:32.783Z,9.20
2022-09-12T22:41:37.727Z,9.10
2022-09-12T22:46:41.802Z,9.00
2022-09-12T22:51:45.154Z,8.90
2022-09-12T22:56:48.501Z,8.90
2022-09-12T23:01:52.181Z,8.90
2022-09-12T23:06:56.340Z,8.80
2022-09-12T23:11:59.978Z,8.80
2022-09-12T23:17:04.451Z,8.80
2022-09-12T23:22:07.788Z,8.70
2022-09-12T23:27:11.170Z,8.60
2022-09-12T23:32:29.131Z,8.60
2022-09-12T23:37:47.829Z,8.50
2022-09-12T23:42:51.417Z,8.50
2022-09-12T23:47:54.847Z,8.30
2022-09-12T23:52:58.380Z,8.30
2022-09-12T23:58:01.804Z,8.20
